createdAt,value
2022-10-01T00:01:06.894Z,86
2022-10-01T00:16:06.891Z,86
2022-10-01T00:31:06.863Z,86
2022-10-01T00:46:06.863Z,86
2022-10-01T01:01:06.826Z,86
2022-10-01T01:16:06.857Z,86
2022-10-01T01:31:06.812Z,86
2022-10-01T01:46:06.826Z,86
2022-10-01T02:01:06.797Z,86
2022-10-01T02:16:06.720Z,86
2022-10-01T02:31:06.764Z,86
2022-10-01T02:46:06.722Z,87
2022-10-01T03:01:06.661Z,87
2022-10-01T03:16:06.725Z,88
2022-10-01T03:31:06.690Z,88
2022-10-01T03:46:06.642Z,88
2022-10-01T04:01:06.609Z,88
2022-10-01T04:16:06.604Z,89
2022-10-01T04:31:06.639Z,89
2022-10-01T04:46:06.514Z,89
2022-10-01T05:01:06.586Z,89
2022-10-01T05:16:06.549Z,89
2022-10-01T05:31:06.543Z,90
2022-10-01T05:46:06.512Z,90
2022-10-01T06:01:06.471Z,90
2022-10-01T06:16:06.466Z,90
2022-10-01T06:31:06.431Z,90
2022-10-01T06:46:06.427Z,90
2022-10-01T07:01:06.521Z,90
2022-10-01T07:16:06.414Z,90
2022-10-01T07:31:06.365Z,90
2022-10-01T08:01:06.417Z,89
2022-10-01T08:16:06.406Z,88
2022-10-01T08:31:06.296Z,88
2022-10-01T08:46:06.326Z,87
2022-10-01T09:01:06.285Z,86
2022-10-01T09:16:06.279Z,86
2022-10-01T09:31:06.325Z,87
2022-10-01T09:46:06.232Z,87
2022-10-01T10:01:06.188Z,88
2022-10-01T10:16:06.201Z,89
2022-10-01T10:31:06.275Z,89
2022-10-01T10:46:06.121Z,89
2022-10-01T11:01:06.189Z,89
2022-10-01T11:16:06.090Z,90
2022-10-01T11:31:06.191Z,90
2022-10-01T11:46:06.098Z,90
2022-10-01T12:01:06.097Z,91
2022-10-01T12:16:06.063Z,91
2022-10-01T12:31:06.010Z,91
2022-10-01T12:46:05.981Z,92
2022-10-01T13:01:06.002Z,92
2022-10-01T13:16:05.928Z,92
2022-10-01T13:31:05.928Z,92
2022-10-01T13:46:05.941Z,92
2022-10-01T14:01:05.887Z,92
2022-10-01T14:16:05.917Z,93
2022-10-01T14:31:05.905Z,93
2022-10-01T14:46:05.853Z,93
2022-10-01T15:01:05.824Z,94
2022-10-01T15:16:05.807Z,94
2022-10-01T15:31:05.834Z,94
2022-10-01T15:46:05.792Z,94
2022-10-01T16:01:05.845Z,94
2022-10-01T16:16:05.734Z,94
2022-10-01T16:31:05.770Z,95
2022-10-01T16:46:05.731Z,95
2022-10-01T17:01:05.719Z,95
2022-10-01T17:16:05.685Z,95
2022-10-01T17:31:05.654Z,95
2022-10-01T17:46:05.645Z,95
2022-10-01T18:01:05.684Z,95
2022-10-01T18:16:05.590Z,95
2022-10-01T18:31:05.635Z,95
2022-10-01T18:46:05.547Z,95
2022-10-01T19:01:05.637Z,95
2022-10-01T19:16:05.511Z,95
2022-10-01T19:31:05.571Z,95
2022-10-01T19:46:05.437Z,96
2022-10-01T20:01:05.559Z,96
2022-10-01T20:16:05.497Z,96
2022-10-01T20:31:05.449Z,96
2022-10-01T20:46:05.438Z,96
2022-10-01T21:01:05.473Z,96
2022-10-01T21:16:05.397Z,96
2022-10-01T21:31:05.348Z,96
2022-10-01T21:46:05.400Z,96
2022-10-01T22:01:05.374Z,96
2022-10-01T22:16:05.343Z,96
2022-10-01T22:31:05.280Z,96
2022-10-01T22:46:05.248Z,96
2022-10-01T23:01:05.261Z,96
2022-10-01T23:16:05.272Z,96
2022-10-01T23:31:05.203Z,96
2022-10-01T23:46:05.247Z,96
